Hatsu Excel — VSXV3 — position and weather

sailwx.info

Track history (hours):
 
Tides and Currents Weather Stations Pressure Air Temp Water Temp Dewpoint Dewpoint Depression Visibility Wind Speed Wind Dir Waves Ship Positions

Hatsu Excel

Last reported at 2015-Jul-04 03:27 UTC. Time now 2015-Jul-04 05:04 UTC.
Position N 31°14' E 123°37'.

Type: Ship (hazmat cat A). MMSI: 235479000.

Date/timePositionNaut miles runAvg speedWind from/ knotsBaromVisibWave heightAir tempDewpointWater temp
2015-Jul-04 03:27N 31°14' E 123°37'1918.1
2015-Jul-04 02:24N 31°33' E 123°35'1718.7
2015-Jul-04 01:29N 31°50' E 123°36'1515.8
2015-Jul-04 00:32N 32°05' E 123°38'1818.8
2015-Jul-03 23:34N 32°24' E 123°36'2019.8
2015-Jul-03 22:34N 32°43' E 123°31'2019.8
2015-Jul-03 21:34N 33°02' E 123°25'2019.8
2015-Jul-03 20:34N 33°21' E 123°17'2019.1
2015-Jul-03 19:32N 33°39' E 123°09'2018.5
2015-Jul-03 18:28N 33°56' E 122°56'3618.3
2015-Jul-03 16:32N 34°24' E 122°30'10319.2
2015-Jul-03 11:08N 35°37' E 121°00'1016.8
2015-Jul-03 10:33N 35°43' E 120°51'1616.5
2015-Jul-03 09:33N 35°55' E 120°37'21 1.6
2015-Jul-02 20:29N 36°00' E 120°12'11 1.6
2015-Jul-02 13:32N 36°01' E 120°26'  
2015-Jun-29 09:33N 34°02' E 134°56'1414.4
2015-Jun-29 08:33N 34°16' E 134°58'1716.7
2015-Jun-29 07:33N 34°30' E 135°10'1514.6
2015-Jun-29 06:33N 34°39' E 135°24'0 0.3
2015-Jun-29 05:32N 34°39' E 135°24'0 0.0
2015-Jun-29 04:33N 34°39' E 135°24'0 0.0
2015-Jun-29 03:33N 34°39' E 135°24'0 0.0
2015-Jun-29 02:33N 34°39' E 135°24'0 0.0
2015-Jun-29 01:33N 34°39' E 135°24'0 0.0
2015-Jun-29 00:33N 34°39' E 135°24'0 0.0
2015-Jun-28 23:32N 34°39' E 135°24'0 0.2
2015-Jun-28 22:33N 34°39' E 135°24'9 9.4
2015-Jun-28 21:33N 34°33' E 135°15'1615.6
2015-Jun-28 20:33N 34°21' E 135°03'1312.7
2015-Jun-28 19:33N 34°09' E 134°58'9 8.9
2015-Jun-28 18:33N 33°60' E 134°59'20812.9
2015-Jun-28 02:29N 34°32' E 139°08'2915.1
2015-Jun-28 00:34N 34°50' E 139°35'1716.6
2015-Jun-27 23:33N 35°05' E 139°43'1111.5
2015-Jun-27 22:33N 35°17' E 139°45'1211.7
2015-Jun-27 21:33N 35°28' E 139°49'9 8.7
2015-Jun-27 20:32N 35°36' E 139°47'0 0.2
2015-Jun-27 19:32N 35°37' E 139°47'0 0.0
2015-Jun-27 18:20N 35°37' E 139°47'0 0.0
2015-Jun-27 17:11N 35°37' E 139°47'0 0.0
2015-Jun-27 16:33N 35°37' E 139°47'0 0.0
2015-Jun-27 15:33N 35°37' E 139°47'0 0.0
2015-Jun-27 14:34N 35°37' E 139°47'0 0.0
2015-Jun-27 13:33N 35°37' E 139°47'0 0.0
2015-Jun-27 12:33N 35°37' E 139°47'0 0.0
2015-Jun-27 11:34N 35°37' E 139°47'0 0.0
2015-Jun-27 10:33N 35°37' E 139°47'0 0.0
2015-Jun-27 09:33N 35°37' E 139°47'0 0.0
2015-Jun-27 08:33N 35°37' E 139°47'3 3.2
2015-Jun-27 07:33N 35°34' E 139°49'1111.4
2015-Jun-27 06:33N 35°23' E 139°46'1211.9
2015-Jun-27 05:33N 35°11' E 139°47'1110.5
2015-Jun-27 04:33N 35°01' E 139°43'1413.2
2015-Jun-27 03:30N 34°49' E 139°51'2216.5
2015-Jun-27 02:11N 34°56' E 140°16'2917.2
2015-Jun-27 00:29N 35°15' E 140°43'68418.8
2015-Jun-25 12:00N 43°48' E 150°30'11218.7 190 / 101014.0 5.4 0.510.5 9.6 8.0
2015-Jun-25 06:00N 45°00' E 152°30'11819.6 230 / 101013.027.0 9.0 7.0 6.0
2015-Jun-25 00:00N 46°18' E 154°36'35419.7 190 / 131013.010.8 1.0 8.0 8.0 7.0
2015-Jun-24 06:00N 49°54' E 161°36'   210 / 111017.0 2.2 1.0 9.0 7.0 7.0
Track history (hours):
 
Tides and Currents Weather Stations Pressure Air Temp Water Temp Dewpoint Dewpoint Depression Visibility Wind Speed Wind Dir Waves Ship Positions

Hatsu Excel

Last reported at 2015-Jul-04 03:27 UTC. Time now 2015-Jul-04 05:04 UTC.
Position N 31°14' E 123°37'.

Type: Ship (hazmat cat A). MMSI: 235479000.

Date/timePositionNaut miles runAvg speedWind from/ knotsBaromVisibWave heightAir tempDewpointWater temp
2015-Jul-04 03:27N 31°14' E 123°37'1918.1
2015-Jul-04 02:24N 31°33' E 123°35'1718.7
2015-Jul-04 01:29N 31°50' E 123°36'1515.8
2015-Jul-04 00:32N 32°05' E 123°38'1818.8
2015-Jul-03 23:34N 32°24' E 123°36'2019.8
2015-Jul-03 22:34N 32°43' E 123°31'2019.8
2015-Jul-03 21:34N 33°02' E 123°25'2019.8
2015-Jul-03 20:34N 33°21' E 123°17'2019.1
2015-Jul-03 19:32N 33°39' E 123°09'2018.5
2015-Jul-03 18:28N 33°56' E 122°56'3618.3
2015-Jul-03 16:32N 34°24' E 122°30'10319.2
2015-Jul-03 11:08N 35°37' E 121°00'1016.8
2015-Jul-03 10:33N 35°43' E 120°51'1616.5
2015-Jul-03 09:33N 35°55' E 120°37'21 1.6
2015-Jul-02 20:29N 36°00' E 120°12'11 1.6
2015-Jul-02 13:32N 36°01' E 120°26'  
2015-Jun-29 09:33N 34°02' E 134°56'1414.4
2015-Jun-29 08:33N 34°16' E 134°58'1716.7
2015-Jun-29 07:33N 34°30' E 135°10'1514.6
2015-Jun-29 06:33N 34°39' E 135°24'0 0.3
2015-Jun-29 05:32N 34°39' E 135°24'0 0.0
2015-Jun-29 04:33N 34°39' E 135°24'0 0.0
2015-Jun-29 03:33N 34°39' E 135°24'0 0.0
2015-Jun-29 02:33N 34°39' E 135°24'0 0.0
2015-Jun-29 01:33N 34°39' E 135°24'0 0.0
2015-Jun-29 00:33N 34°39' E 135°24'0 0.0
2015-Jun-28 23:32N 34°39' E 135°24'0 0.2
2015-Jun-28 22:33N 34°39' E 135°24'9 9.4
2015-Jun-28 21:33N 34°33' E 135°15'1615.6
2015-Jun-28 20:33N 34°21' E 135°03'1312.7
2015-Jun-28 19:33N 34°09' E 134°58'9 8.9
2015-Jun-28 18:33N 33°60' E 134°59'20812.9
2015-Jun-28 02:29N 34°32' E 139°08'2915.1
2015-Jun-28 00:34N 34°50' E 139°35'1716.6
2015-Jun-27 23:33N 35°05' E 139°43'1111.5
2015-Jun-27 22:33N 35°17' E 139°45'1211.7
2015-Jun-27 21:33N 35°28' E 139°49'9 8.7
2015-Jun-27 20:32N 35°36' E 139°47'0 0.2
2015-Jun-27 19:32N 35°37' E 139°47'0 0.0
2015-Jun-27 18:20N 35°37' E 139°47'0 0.0
2015-Jun-27 17:11N 35°37' E 139°47'0 0.0
2015-Jun-27 16:33N 35°37' E 139°47'0 0.0
2015-Jun-27 15:33N 35°37' E 139°47'0 0.0
2015-Jun-27 14:34N 35°37' E 139°47'0 0.0
2015-Jun-27 13:33N 35°37' E 139°47'0 0.0
2015-Jun-27 12:33N 35°37' E 139°47'0 0.0
2015-Jun-27 11:34N 35°37' E 139°47'0 0.0
2015-Jun-27 10:33N 35°37' E 139°47'0 0.0
2015-Jun-27 09:33N 35°37' E 139°47'0 0.0
2015-Jun-27 08:33N 35°37' E 139°47'3 3.2
2015-Jun-27 07:33N 35°34' E 139°49'1111.4
2015-Jun-27 06:33N 35°23' E 139°46'1211.9
2015-Jun-27 05:33N 35°11' E 139°47'1110.5
2015-Jun-27 04:33N 35°01' E 139°43'1413.2
2015-Jun-27 03:30N 34°49' E 139°51'2216.5
2015-Jun-27 02:11N 34°56' E 140°16'2917.2
2015-Jun-27 00:29N 35°15' E 140°43'68418.8
2015-Jun-25 12:00N 43°48' E 150°30'11218.7 190 / 101014.0 5.4 0.510.5 9.6 8.0
2015-Jun-25 06:00N 45°00' E 152°30'11819.6 230 / 101013.027.0 9.0 7.0 6.0
2015-Jun-25 00:00N 46°18' E 154°36'35419.7 190 / 131013.010.8 1.0 8.0 8.0 7.0
2015-Jun-24 06:00N 49°54' E 161°36'   210 / 111017.0 2.2 1.0 9.0 7.0 7.0

Dump ship's entire track history